createdAt,value
2024-03-12T00:01:41.289Z,5.82
2024-03-12T00:06:44.842Z,6.25
2024-03-12T00:11:48.802Z,5.63
2024-03-12T00:16:51.933Z,6.68
2024-03-12T00:21:56.652Z,7.00
2024-03-12T00:26:59.758Z,9.10
2024-03-12T00:32:03.658Z,10.63
2024-03-12T00:37:06.698Z,9.45
2024-03-12T00:42:09.763Z,6.88
2024-03-12T00:47:13.078Z,7.10
2024-03-12T00:52:18.557Z,7.53
2024-03-12T00:57:24.090Z,7.25
2024-03-12T01:02:27.314Z,9.95
2024-03-12T01:07:31.794Z,11.75
2024-03-12T01:12:35.169Z,8.73
2024-03-12T01:17:39.446Z,8.23
2024-03-12T01:22:43.048Z,9.15
2024-03-12T01:27:46.171Z,8.93
2024-03-12T01:32:49.648Z,6.65
2024-03-12T01:37:58.546Z,7.28
2024-03-12T01:43:03.922Z,10.65
2024-03-12T01:53:17.947Z,6.90
2024-03-12T01:58:22.597Z,10.00
2024-03-12T02:03:25.558Z,8.27
2024-03-12T02:08:29.256Z,8.02
2024-03-12T02:13:32.422Z,4.60
2024-03-12T02:18:36.174Z,8.80
2024-03-12T02:23:40.299Z,9.55
2024-03-12T02:28:45.264Z,8.75
2024-03-12T02:33:48.909Z,5.95
2024-03-12T02:38:52.334Z,7.18
2024-03-12T02:43:55.528Z,7.13
2024-03-12T02:48:58.501Z,8.73
2024-03-12T02:54:01.994Z,10.55
2024-03-12T02:59:05.179Z,6.10
2024-03-12T03:04:11.879Z,7.57
2024-03-12T03:09:14.915Z,9.02
2024-03-12T03:14:17.926Z,11.30
2024-03-12T03:19:21.543Z,6.53
2024-03-12T03:24:24.622Z,6.97
2024-03-12T03:29:32.886Z,6.53
2024-03-12T03:34:36.276Z,8.52
2024-03-12T03:39:39.685Z,7.72
2024-03-12T03:44:43.207Z,7.90
2024-03-12T03:49:49.166Z,7.50
2024-03-12T03:54:52.688Z,6.60
2024-03-12T03:59:58.358Z,10.10
2024-03-12T04:05:04.467Z,7.20
2024-03-12T04:10:12.039Z,10.88
2024-03-12T04:15:16.108Z,7.47
2024-03-12T04:20:19.166Z,7.13
2024-03-12T04:25:22.393Z,10.32
2024-03-12T04:30:25.597Z,9.85
2024-03-12T04:35:28.760Z,13.65
2024-03-12T04:40:31.711Z,10.52
2024-03-12T04:45:34.710Z,6.00
2024-03-12T04:50:37.671Z,10.80
2024-03-12T04:55:41.007Z,10.82
2024-03-12T05:00:44.163Z,9.73
2024-03-12T05:05:47.717Z,10.48
2024-03-12T05:10:51.038Z,12.93
2024-03-12T05:15:54.108Z,8.70
2024-03-12T05:20:57.486Z,11.05
2024-03-12T05:26:00.454Z,11.85
2024-03-12T05:31:03.923Z,8.90
2024-03-12T05:36:15.897Z,11.48
2024-03-12T05:41:27.260Z,12.48
2024-03-12T05:46:49.241Z,11.52
2024-03-12T05:51:54.810Z,10.20
2024-03-12T05:56:58.225Z,9.65
2024-03-12T06:02:01.495Z,11.27
2024-03-12T06:07:04.740Z,8.23
2024-03-12T06:12:08.092Z,11.52
2024-03-12T06:17:11.427Z,12.20
2024-03-12T06:22:14.557Z,9.40
2024-03-12T06:27:19.635Z,8.75
2024-03-12T06:32:23.376Z,10.52
2024-03-12T06:37:29.343Z,7.95
2024-03-12T06:42:32.429Z,12.10
2024-03-12T06:47:40.353Z,10.30
2024-03-12T06:52:48.495Z,10.20
2024-03-12T06:58:04.153Z,10.27
2024-03-12T07:03:11.145Z,9.73
2024-03-12T07:08:16.224Z,10.65
2024-03-12T07:18:25.192Z,9.73
2024-03-12T07:23:28.261Z,8.48
2024-03-12T07:28:31.409Z,8.43
2024-03-12T07:33:34.525Z,11.75
2024-03-12T07:38:39.958Z,6.28
2024-03-12T07:43:43.034Z,7.57
2024-03-12T07:48:46.739Z,10.95
2024-03-12T07:53:51.150Z,8.73
2024-03-12T07:58:54.301Z,9.40
2024-03-12T08:03:58.028Z,12.27
2024-03-12T08:09:01.187Z,8.80
2024-03-12T08:14:22.842Z,9.68
2024-03-12T08:19:27.042Z,9.43
2024-03-12T08:24:30.984Z,10.63
2024-03-12T08:29:34.683Z,10.50
2024-03-12T08:34:38.201Z,9.02
2024-03-12T08:39:41.363Z,9.18
2024-03-12T08:44:44.872Z,8.82
2024-03-12T08:49:47.802Z,10.98
2024-03-12T08:54:51.128Z,8.40
2024-03-12T08:59:54.598Z,6.85
2024-03-12T09:04:58.114Z,7.32
2024-03-12T09:10:01.689Z,6.40
2024-03-12T09:15:09.930Z,7.85
2024-03-12T09:20:13.541Z,9.30
2024-03-12T09:25:19.804Z,10.75
2024-03-12T09:30:25.548Z,7.72
2024-03-12T09:35:29.272Z,10.77
2024-03-12T09:40:33.327Z,9.77
2024-03-12T09:45:36.541Z,6.88
2024-03-12T09:50:39.826Z,6.40
2024-03-12T09:55:44.239Z,6.78
2024-03-12T10:00:48.035Z,8.20
2024-03-12T10:05:52.404Z,6.47
2024-03-12T10:10:56.459Z,7.07
2024-03-12T10:16:01.719Z,7.20
2024-03-12T10:21:05.416Z,6.68
2024-03-12T10:26:20.366Z,5.68
2024-03-12T10:31:30.817Z,6.70
2024-03-12T10:36:34.890Z,8.75
2024-03-12T10:41:38.141Z,6.35
2024-03-12T10:46:42.675Z,7.32
2024-03-12T10:51:46.646Z,7.57
2024-03-12T10:56:50.362Z,7.78
2024-03-12T11:01:53.497Z,6.13
2024-03-12T11:07:02.258Z,6.97
2024-03-12T11:12:05.718Z,5.55
2024-03-12T11:17:49.943Z,6.90
2024-03-12T11:23:02.609Z,7.25
2024-03-12T11:28:26.563Z,6.28
2024-03-12T11:33:53.789Z,6.50
2024-03-12T11:39:13.277Z,6.45
2024-03-12T11:44:56.808Z,6.45
2024-03-12T11:50:03.405Z,8.27
2024-03-12T11:55:09.424Z,4.65
2024-03-12T12:00:13.208Z,5.05
2024-03-12T12:10:21.657Z,5.28
2024-03-12T12:15:25.028Z,4.63
2024-03-12T12:20:31.401Z,5.60
2024-03-12T12:25:35.885Z,5.60
2024-03-12T12:30:38.999Z,5.97
2024-03-12T12:35:48.571Z,6.60
2024-03-12T12:40:57.054Z,5.25
2024-03-12T12:46:16.881Z,5.32
2024-03-12T12:51:25.105Z,4.88
2024-03-12T12:56:29.138Z,5.22
2024-03-12T13:01:34.538Z,6.20
2024-03-12T13:06:42.752Z,5.03
2024-03-12T13:11:46.021Z,6.30
2024-03-12T13:16:49.668Z,7.25
2024-03-12T13:21:57.861Z,6.65
2024-03-12T13:27:01.192Z,7.63
2024-03-12T13:32:04.467Z,5.55
2024-03-12T13:37:08.850Z,8.57
2024-03-12T13:42:11.866Z,6.43
2024-03-12T13:47:14.948Z,5.93
2024-03-12T13:52:18.289Z,4.68
2024-03-12T13:57:21.492Z,3.88
2024-03-12T14:02:24.805Z,7.55
2024-03-12T14:07:28.394Z,5.40
2024-03-12T14:12:31.598Z,7.90
2024-03-12T14:17:34.598Z,6.47
2024-03-12T14:22:38.958Z,6.95
2024-03-12T14:27:42.206Z,4.32
2024-03-12T14:32:45.431Z,4.50
2024-03-12T14:37:48.970Z,4.78
2024-03-12T14:42:55.991Z,3.25
2024-03-12T14:47:59.229Z,5.03
2024-03-12T14:53:02.576Z,6.05
2024-03-12T14:58:09.176Z,4.15
2024-03-12T15:03:14.138Z,4.28
2024-03-12T15:08:19.036Z,6.45
2024-03-12T15:13:22.318Z,6.45
2024-03-12T15:18:29.204Z,10.77
2024-03-12T15:23:32.831Z,6.28
2024-03-12T15:28:35.991Z,4.75
2024-03-12T15:33:39.244Z,4.35
2024-03-12T15:38:42.173Z,5.75
2024-03-12T15:43:46.878Z,5.80
2024-03-12T15:48:49.988Z,10.48
2024-03-12T15:53:53.106Z,9.85
2024-03-12T15:58:56.271Z,8.30
2024-03-12T16:03:59.498Z,12.77
2024-03-12T16:09:02.768Z,9.18
2024-03-12T16:14:07.469Z,11.50
2024-03-12T16:19:10.525Z,12.75
2024-03-12T16:24:13.630Z,12.90
2024-03-12T16:29:17.408Z,9.80
2024-03-12T16:34:20.873Z,10.65
2024-03-12T16:39:24.334Z,15.23
2024-03-12T16:44:27.471Z,6.72
2024-03-12T16:49:30.627Z,9.40
2024-03-12T16:54:37.032Z,13.35
2024-03-12T16:59:40.684Z,8.68
2024-03-12T17:04:43.868Z,7.22
2024-03-12T17:09:47.708Z,10.32
2024-03-12T17:14:51.062Z,7.63
2024-03-12T17:19:54.461Z,8.60
2024-03-12T17:24:58.985Z,10.43
2024-03-12T17:30:02.586Z,5.40
2024-03-12T17:40:20.044Z,5.53
2024-03-12T17:45:25.227Z,4.80
2024-03-12T17:50:28.940Z,9.00
2024-03-12T17:55:32.333Z,7.65
2024-03-12T18:00:37.246Z,3.65
2024-03-12T18:10:47.078Z,6.90
2024-03-12T18:15:51.020Z,6.82
2024-03-12T18:20:54.272Z,5.45
2024-03-12T18:26:00.008Z,9.70
2024-03-12T18:31:03.260Z,5.47
2024-03-12T18:36:07.136Z,6.65
2024-03-12T18:41:11.793Z,8.43
2024-03-12T18:46:14.939Z,8.35
2024-03-12T18:51:19.768Z,6.80
2024-03-12T19:01:30.339Z,6.40
2024-03-12T19:06:33.839Z,7.30
2024-03-12T19:11:37.477Z,8.18
2024-03-12T19:16:47.763Z,4.50
2024-03-12T19:21:51.979Z,7.25
2024-03-12T19:26:55.349Z,6.10
2024-03-12T19:31:58.708Z,7.60
2024-03-12T19:37:03.123Z,10.65
2024-03-12T19:42:06.724Z,7.75
2024-03-12T19:47:10.001Z,5.75
2024-03-12T19:52:15.362Z,6.50
2024-03-12T19:57:20.648Z,3.55
2024-03-12T20:02:23.780Z,3.17
2024-03-12T20:07:28.359Z,7.72
2024-03-12T20:12:33.331Z,5.47
2024-03-12T20:22:40.735Z,5.90
2024-03-12T20:27:44.180Z,6.75
2024-03-12T20:32:47.890Z,6.70
2024-03-12T20:37:51.166Z,6.60
2024-03-12T20:42:56.428Z,6.07
2024-03-12T20:47:59.766Z,5.05
2024-03-12T20:53:02.869Z,4.30
2024-03-12T20:58:05.950Z,4.43
2024-03-12T21:03:11.680Z,4.68
2024-03-12T21:08:17.663Z,4.53
2024-03-12T21:13:21.705Z,3.53
2024-03-12T21:18:26.307Z,3.78
2024-03-12T21:23:30.027Z,4.18
2024-03-12T21:28:35.743Z,4.80
2024-03-12T21:33:38.743Z,5.18
2024-03-12T21:38:42.111Z,4.22
2024-03-12T21:43:46.171Z,2.85
2024-03-12T21:48:49.513Z,3.53
2024-03-12T21:53:54.407Z,3.55
2024-03-12T22:04:02.893Z,3.25
2024-03-12T22:09:06.066Z,5.00
2024-03-12T22:14:09.643Z,4.50
2024-03-12T22:19:15.726Z,4.47
2024-03-12T22:24:26.077Z,5.53
2024-03-12T22:29:29.007Z,3.45
2024-03-12T22:34:32.147Z,4.45
2024-03-12T22:39:37.883Z,5.60
2024-03-12T22:44:41.217Z,6.13
2024-03-12T22:49:44.941Z,5.60
2024-03-12T22:54:49.569Z,5.55
2024-03-12T22:59:53.923Z,3.70
2024-03-12T23:04:58.056Z,2.60
2024-03-12T23:10:02.123Z,2.42
2024-03-12T23:15:08.701Z,3.47
2024-03-12T23:20:14.676Z,3.42
2024-03-12T23:25:18.033Z,2.35
2024-03-12T23:30:21.044Z,2.45
2024-03-12T23:35:25.269Z,1.38
2024-03-12T23:40:29.274Z,3.50
2024-03-12T23:45:32.858Z,2.05
2024-03-12T23:50:37.270Z,2.60
2024-03-12T23:55:40.735Z,2.72
